FDX506 EDLV-EHRD
Flight info
| Callsign | FDX506 |
|---|---|
| Flight time | 0h 30m |
| Altitude | 16000 |
| Route | VEBAK2R VEBAK DCT EHOJI/N0269F060 P57 INKET |
| Aircraft | DH8D/M-SDE2E3FGRY/H |
Departure
| Time | 2026-05-07 14:36 |
|---|---|
| Airport | Weeze (Niederrhein) Airport (EDLV) |
Arrival
| Time | 2026-05-07 15:07 |
|---|---|
| Airport | Rotterdam The Hague Airport (EHRD) |
| Time | Latitude | Longitude | Altitude | Speed | Heading |
|---|---|---|---|---|---|
| 2026-05-07 14:18 | 51.59999 | 6.14656 | 110 ft | 0 kts | 92° |
| 2026-05-07 14:22 | 51.59999 | 6.14657 | 110 ft | 0 kts | 92° |
| 2026-05-07 14:23 | 51.60001 | 6.14648 | 110 ft | 2 kts | 131° |
| 2026-05-07 14:23 | 51.60011 | 6.14630 | 109 ft | 2 kts | 128° |
| 2026-05-07 14:23 | 51.60017 | 6.14618 | 109 ft | 1 kts | 128° |
| 2026-05-07 14:24 | 51.60026 | 6.14599 | 109 ft | 2 kts | 128° |
| 2026-05-07 14:24 | 51.60036 | 6.14581 | 109 ft | 2 kts | 128° |
| 2026-05-07 14:24 | 51.60044 | 6.14564 | 109 ft | 0 kts | 128° |
| 2026-05-07 14:24 | 51.60046 | 6.14557 | 109 ft | 0 kts | 94° |
| 2026-05-07 14:25 | 51.60047 | 6.14551 | 109 ft | 0 kts | 92° |
| 2026-05-07 14:31 | 51.60053 | 6.14592 | 109 ft | 8 kts | 76° |
| 2026-05-07 14:31 | 51.60045 | 6.14550 | 109 ft | 13 kts | 272° |
| 2026-05-07 14:31 | 51.60051 | 6.14285 | 106 ft | 31 kts | 271° |
| 2026-05-07 14:31 | 51.60055 | 6.14150 | 104 ft | 1 kts | 274° |
| 2026-05-07 14:32 | 51.60059 | 6.14009 | 103 ft | 24 kts | 272° |
| 2026-05-07 14:32 | 51.60066 | 6.13788 | 100 ft | 20 kts | 271° |
| 2026-05-07 14:32 | 51.60079 | 6.13493 | 99 ft | 30 kts | 276° |
| 2026-05-07 14:32 | 51.60079 | 6.13149 | 99 ft | 23 kts | 271° |
| 2026-05-07 14:33 | 51.60080 | 6.13017 | 100 ft | 0 kts | 268° |
| 2026-05-07 14:33 | 51.60079 | 6.12951 | 100 ft | 16 kts | 270° |
| 2026-05-07 14:34 | 51.60086 | 6.12752 | 101 ft | 19 kts | 272° |
| 2026-05-07 14:34 | 51.60092 | 6.12546 | 103 ft | 18 kts | 274° |
| 2026-05-07 14:34 | 51.60177 | 6.12457 | 103 ft | 14 kts | 1° |
| 2026-05-07 14:34 | 51.60183 | 6.12457 | 103 ft | 2 kts | 1° |
| 2026-05-07 14:35 | 51.60265 | 6.12471 | 103 ft | 19 kts | 25° |
| 2026-05-07 14:35 | 51.60276 | 6.12840 | 100 ft | 69 kts | 89° |
| 2026-05-07 14:35 | 51.60251 | 6.14049 | 103 ft | 140 kts | 92° |
| 2026-05-07 14:35 | 51.60179 | 6.15852 | 154 ft | 179 kts | 94° |
| 2026-05-07 14:36 | 51.60078 | 6.17842 | 609 ft | 187 kts | 95° |
| 2026-05-07 14:36 | 51.59713 | 6.19843 | 1346 ft | 191 kts | 123° |
| 2026-05-07 14:36 | 51.58595 | 6.20885 | 1973 ft | 199 kts | 167° |
| 2026-05-07 14:36 | 51.57261 | 6.21403 | 2666 ft | 197 kts | 149° |
| 2026-05-07 14:37 | 51.56452 | 6.23040 | 3282 ft | 191 kts | 98° |
| 2026-05-07 14:37 | 51.57399 | 6.26755 | 4618 ft | 189 kts | 69° |
| 2026-05-07 14:37 | 51.57433 | 6.28866 | 5249 ft | 195 kts | 96° |
| 2026-05-07 14:38 | 51.57214 | 6.31018 | 5945 ft | 198 kts | 96° |
| 2026-05-07 14:38 | 51.56991 | 6.33172 | 6630 ft | 201 kts | 97° |
| 2026-05-07 14:38 | 51.56757 | 6.35398 | 7308 ft | 204 kts | 97° |
| 2026-05-07 14:38 | 51.56489 | 6.37639 | 7993 ft | 208 kts | 105° |
| 2026-05-07 14:39 | 51.55619 | 6.39442 | 8594 ft | 212 kts | 152° |
| 2026-05-07 14:39 | 51.54191 | 6.39672 | 9175 ft | 214 kts | 194° |
| 2026-05-07 14:39 | 51.52793 | 6.38903 | 9866 ft | 215 kts | 200° |
| 2026-05-07 14:39 | 51.51400 | 6.38077 | 10543 ft | 216 kts | 200° |
| 2026-05-07 14:40 | 51.49997 | 6.37235 | 11215 ft | 218 kts | 201° |
| 2026-05-07 14:40 | 51.48576 | 6.36379 | 11898 ft | 220 kts | 201° |
| 2026-05-07 14:40 | 51.47189 | 6.35366 | 12565 ft | 221 kts | 218° |
| 2026-05-07 14:40 | 51.46397 | 6.33324 | 13130 ft | 220 kts | 263° |
| 2026-05-07 14:41 | 51.46574 | 6.30929 | 13739 ft | 221 kts | 284° |
| 2026-05-07 14:41 | 51.46990 | 6.28575 | 14413 ft | 223 kts | 286° |
| 2026-05-07 14:41 | 51.47447 | 6.26213 | 15085 ft | 225 kts | 287° |
| 2026-05-07 14:41 | 51.47935 | 6.23841 | 15702 ft | 231 kts | 288° |
| 2026-05-07 14:42 | 51.48486 | 6.21267 | 15955 ft | 253 kts | 289° |
| 2026-05-07 14:42 | 51.49102 | 6.18483 | 16037 ft | 279 kts | 289° |
| 2026-05-07 14:42 | 51.49794 | 6.15430 | 16057 ft | 302 kts | 289° |
| 2026-05-07 14:42 | 51.50534 | 6.12209 | 16061 ft | 321 kts | 290° |
| 2026-05-07 14:43 | 51.51330 | 6.08777 | 16057 ft | 335 kts | 290° |
| 2026-05-07 14:43 | 51.52153 | 6.05240 | 16039 ft | 335 kts | 290° |
| 2026-05-07 14:43 | 51.52949 | 6.01811 | 16031 ft | 321 kts | 290° |
| 2026-05-07 14:43 | 51.53716 | 5.98508 | 16035 ft | 309 kts | 290° |
| 2026-05-07 14:44 | 51.54461 | 5.95307 | 15837 ft | 306 kts | 290° |
| 2026-05-07 14:44 | 51.55202 | 5.92132 | 15474 ft | 308 kts | 290° |
| 2026-05-07 14:44 | 51.55962 | 5.88873 | 15089 ft | 310 kts | 290° |
| 2026-05-07 14:44 | 51.56714 | 5.85654 | 14622 ft | 310 kts | 290° |
| 2026-05-07 14:45 | 51.57464 | 5.82428 | 14112 ft | 306 kts | 290° |
| 2026-05-07 14:45 | 51.58197 | 5.79275 | 13609 ft | 302 kts | 290° |
| 2026-05-07 14:45 | 51.58926 | 5.76142 | 13106 ft | 299 kts | 290° |
| 2026-05-07 14:45 | 51.59657 | 5.73001 | 12598 ft | 296 kts | 290° |
| 2026-05-07 14:46 | 51.60372 | 5.69924 | 12094 ft | 294 kts | 290° |
| 2026-05-07 14:46 | 51.61081 | 5.66870 | 11593 ft | 291 kts | 290° |
| 2026-05-07 14:46 | 51.61783 | 5.63842 | 11093 ft | 290 kts | 291° |
| 2026-05-07 14:46 | 51.62479 | 5.60832 | 10593 ft | 288 kts | 291° |
| 2026-05-07 14:47 | 51.63174 | 5.57831 | 10092 ft | 286 kts | 291° |
| 2026-05-07 14:47 | 51.63866 | 5.54832 | 9590 ft | 285 kts | 291° |
| 2026-05-07 14:47 | 51.64547 | 5.51885 | 9136 ft | 284 kts | 291° |
| 2026-05-07 14:47 | 51.65227 | 5.48928 | 8620 ft | 279 kts | 291° |
| 2026-05-07 14:48 | 51.65885 | 5.46055 | 8116 ft | 272 kts | 291° |
| 2026-05-07 14:48 | 51.66537 | 5.43210 | 7605 ft | 265 kts | 291° |
| 2026-05-07 14:48 | 51.67164 | 5.40473 | 7099 ft | 260 kts | 291° |
| 2026-05-07 14:48 | 51.67780 | 5.37779 | 6593 ft | 255 kts | 291° |
| 2026-05-07 14:49 | 51.68388 | 5.35119 | 6158 ft | 247 kts | 291° |
| 2026-05-07 14:49 | 51.68957 | 5.32621 | 6012 ft | 227 kts | 291° |
| 2026-05-07 14:49 | 51.69479 | 5.30335 | 5979 ft | 218 kts | 291° |
| 2026-05-07 14:49 | 51.70013 | 5.28019 | 5967 ft | 218 kts | 291° |
| 2026-05-07 14:50 | 51.70538 | 5.25736 | 5963 ft | 218 kts | 291° |
| 2026-05-07 14:50 | 51.71087 | 5.23355 | 5980 ft | 235 kts | 291° |
| 2026-05-07 14:50 | 51.71668 | 5.20837 | 5977 ft | 245 kts | 291° |
| 2026-05-07 14:50 | 51.72266 | 5.18215 | 5972 ft | 251 kts | 291° |
| 2026-05-07 14:51 | 51.72863 | 5.15574 | 5963 ft | 248 kts | 291° |
| 2026-05-07 14:51 | 51.73450 | 5.12978 | 5961 ft | 246 kts | 291° |
| 2026-05-07 14:51 | 51.74031 | 5.10406 | 5959 ft | 243 kts | 290° |
| 2026-05-07 14:51 | 51.74608 | 5.07849 | 5960 ft | 241 kts | 290° |
| 2026-05-07 14:52 | 51.75174 | 5.05340 | 5959 ft | 239 kts | 290° |
| 2026-05-07 14:52 | 51.75739 | 5.02830 | 5960 ft | 238 kts | 290° |
| 2026-05-07 14:52 | 51.76300 | 5.00340 | 5963 ft | 236 kts | 290° |
| 2026-05-07 14:52 | 51.76865 | 4.97828 | 5965 ft | 235 kts | 290° |
| 2026-05-07 14:53 | 51.77420 | 4.95353 | 5967 ft | 234 kts | 290° |
| 2026-05-07 14:53 | 51.77972 | 4.92895 | 5963 ft | 233 kts | 290° |
| 2026-05-07 14:53 | 51.78521 | 4.90444 | 5964 ft | 232 kts | 291° |
| 2026-05-07 14:53 | 51.79072 | 4.87984 | 5967 ft | 231 kts | 291° |
| 2026-05-07 14:54 | 51.79616 | 4.85551 | 5967 ft | 230 kts | 290° |
| 2026-05-07 14:54 | 51.79960 | 4.83056 | 5963 ft | 229 kts | 274° |
| 2026-05-07 14:54 | 51.80024 | 4.80501 | 5966 ft | 228 kts | 273° |
| 2026-05-07 14:54 | 51.80088 | 4.77950 | 5967 ft | 227 kts | 273° |
| 2026-05-07 14:55 | 51.80154 | 4.75384 | 5968 ft | 227 kts | 273° |
| 2026-05-07 14:55 | 51.80229 | 4.72852 | 5961 ft | 226 kts | 274° |
| 2026-05-07 14:55 | 51.80302 | 4.70267 | 5725 ft | 233 kts | 273° |
| 2026-05-07 14:55 | 51.80364 | 4.67682 | 5347 ft | 227 kts | 273° |
| 2026-05-07 14:56 | 51.80427 | 4.65199 | 4963 ft | 221 kts | 273° |
| 2026-05-07 14:56 | 51.80480 | 4.62731 | 4547 ft | 216 kts | 273° |
| 2026-05-07 14:56 | 51.80521 | 4.60361 | 4166 ft | 211 kts | 272° |
| 2026-05-07 14:56 | 51.80562 | 4.57999 | 3763 ft | 207 kts | 273° |
| 2026-05-07 14:57 | 51.80591 | 4.55708 | 3376 ft | 203 kts | 273° |
| 2026-05-07 14:57 | 51.80613 | 4.53453 | 2993 ft | 199 kts | 273° |
| 2026-05-07 14:57 | 51.80628 | 4.51255 | 2610 ft | 194 kts | 273° |
| 2026-05-07 14:57 | 51.80635 | 4.49126 | 2254 ft | 187 kts | 272° |
| 2026-05-07 14:58 | 51.80636 | 4.47106 | 2079 ft | 170 kts | 273° |
| 2026-05-07 14:58 | 51.80642 | 4.45212 | 2031 ft | 172 kts | 273° |
| 2026-05-07 14:58 | 51.80648 | 4.43282 | 2003 ft | 172 kts | 273° |
| 2026-05-07 14:58 | 51.80656 | 4.41331 | 1988 ft | 172 kts | 273° |
| 2026-05-07 14:59 | 51.80662 | 4.39412 | 1977 ft | 171 kts | 273° |
| 2026-05-07 14:59 | 51.80665 | 4.37479 | 1973 ft | 170 kts | 273° |
| 2026-05-07 14:59 | 51.80668 | 4.35567 | 2004 ft | 174 kts | 273° |
| 2026-05-07 14:59 | 51.80672 | 4.33565 | 1992 ft | 181 kts | 272° |
| 2026-05-07 15:00 | 51.80679 | 4.31514 | 1988 ft | 186 kts | 272° |
| 2026-05-07 15:00 | 51.80684 | 4.29417 | 1983 ft | 188 kts | 272° |
| 2026-05-07 15:00 | 51.80691 | 4.27273 | 1983 ft | 191 kts | 272° |
| 2026-05-07 15:00 | 51.80949 | 4.25183 | 1972 ft | 187 kts | 303° |
| 2026-05-07 15:01 | 51.81843 | 4.23814 | 1996 ft | 174 kts | 332° |
| 2026-05-07 15:01 | 51.82854 | 4.22791 | 1974 ft | 162 kts | 330° |
| 2026-05-07 15:01 | 51.83763 | 4.21875 | 1950 ft | 145 kts | 339° |
| 2026-05-07 15:01 | 51.84644 | 4.21845 | 1887 ft | 122 kts | 31° |
| 2026-05-07 15:02 | 51.85341 | 4.22517 | 1956 ft | 123 kts | 31° |
| 2026-05-07 15:02 | 51.86167 | 4.23259 | 1960 ft | 136 kts | 30° |
| 2026-05-07 15:02 | 51.86995 | 4.24005 | 1986 ft | 141 kts | 31° |
| 2026-05-07 15:02 | 51.87846 | 4.24781 | 1975 ft | 138 kts | 35° |
| 2026-05-07 15:03 | 51.88484 | 4.25866 | 1969 ft | 131 kts | 57° |
| 2026-05-07 15:03 | 51.88926 | 4.27123 | 1965 ft | 125 kts | 60° |
| 2026-05-07 15:03 | 51.89358 | 4.28298 | 1956 ft | 117 kts | 57° |
| 2026-05-07 15:03 | 51.89787 | 4.29399 | 2001 ft | 121 kts | 59° |
| 2026-05-07 15:04 | 51.90250 | 4.30650 | 2114 ft | 137 kts | 57° |
| 2026-05-07 15:04 | 51.90767 | 4.31888 | 1712 ft | 130 kts | 53° |
| 2026-05-07 15:04 | 51.91259 | 4.33024 | 1528 ft | 119 kts | 55° |
| 2026-05-07 15:04 | 51.91716 | 4.34177 | 1357 ft | 122 kts | 56° |
| 2026-05-07 15:05 | 51.92164 | 4.35287 | 1141 ft | 117 kts | 55° |
| 2026-05-07 15:05 | 51.92615 | 4.36421 | 1006 ft | 122 kts | 55° |
| 2026-05-07 15:05 | 51.93089 | 4.37604 | 851 ft | 130 kts | 55° |
| 2026-05-07 15:05 | 51.93612 | 4.38893 | 666 ft | 139 kts | 54° |
| 2026-05-07 15:06 | 51.94134 | 4.40161 | 433 ft | 131 kts | 53° |
| 2026-05-07 15:06 | 51.94609 | 4.41367 | 232 ft | 126 kts | 56° |
| 2026-05-07 15:06 | 51.95106 | 4.42583 | 74 ft | 133 kts | 55° |
| 2026-05-07 15:06 | 51.95596 | 4.43792 | -7 ft | 118 kts | 54° |
| 2026-05-07 15:07 | 51.95855 | 4.44451 | -11 ft | 24 kts | 57° |
| 2026-05-07 15:07 | 51.95903 | 4.44589 | -11 ft | 9 kts | 66° |
| 2026-05-07 15:07 | 51.95932 | 4.44668 | -11 ft | 10 kts | 54° |
| 2026-05-07 15:07 | 51.96016 | 4.44850 | -11 ft | 28 kts | 53° |
| 2026-05-07 15:08 | 51.96131 | 4.45116 | -10 ft | 24 kts | 60° |
| 2026-05-07 15:08 | 51.96209 | 4.45324 | -10 ft | 18 kts | 56° |
| 2026-05-07 15:08 | 51.96246 | 4.45498 | -10 ft | 16 kts | 101° |
| 2026-05-07 15:08 | 51.96180 | 4.45630 | -10 ft | 15 kts | 158° |
| 2026-05-07 15:09 | 51.96101 | 4.45542 | -10 ft | 14 kts | 233° |
| 2026-05-07 15:09 | 51.96043 | 4.45409 | -10 ft | 13 kts | 238° |
| 2026-05-07 15:09 | 51.96001 | 4.45299 | -10 ft | 10 kts | 237° |
| 2026-05-07 15:09 | 51.95951 | 4.45168 | -10 ft | 21 kts | 237° |
| 2026-05-07 15:10 | 51.95838 | 4.44886 | -11 ft | 36 kts | 236° |
| 2026-05-07 15:10 | 51.95716 | 4.44586 | -11 ft | 27 kts | 234° |
| 2026-05-07 15:10 | 51.95624 | 4.44354 | -9 ft | 21 kts | 241° |
| 2026-05-07 15:10 | 51.95554 | 4.44180 | -8 ft | 15 kts | 236° |
| 2026-05-07 15:11 | 51.95500 | 4.44050 | -8 ft | 12 kts | 236° |
| 2026-05-07 15:11 | 51.95454 | 4.43935 | -7 ft | 13 kts | 238° |
| 2026-05-07 15:11 | 51.95397 | 4.43783 | -7 ft | 17 kts | 237° |
| 2026-05-07 15:11 | 51.95327 | 4.43618 | -6 ft | 14 kts | 236° |
| 2026-05-07 15:12 | 51.95269 | 4.43515 | -6 ft | 13 kts | 187° |
| 2026-05-07 15:12 | 51.95191 | 4.43537 | -6 ft | 11 kts | 214° |
| 2026-05-07 15:12 | 51.95149 | 4.43450 | -6 ft | 6 kts | 272° |
| 2026-05-07 15:12 | 51.95159 | 4.43435 | -6 ft | 2 kts | 328° |
| 2026-05-07 15:13 | 51.95187 | 4.43406 | -6 ft | 0 kts | 326° |